Riverside, PA (17868)

10:32 AM EDT del 25 Ottobre 2014 (GMT -0400)
Mahoning Township | Change Station
CLOSE
Current Station
Stazione meteo personale
Location: Danville, PA
Altitudine: 510 ft
Stazioni meteo nelle vicinanze

Alt. 510 ft 40.96 °N, 76.58 °W | Updated 14 minutes ago

Molto nuvoloso
Molto nuvoloso
47.0 °F
Sembra 47 °F
N
0.0
Vento Variabile Vento da Ovest

Oggi
Massima -- | Minima -- °F
--% Possibilità di precip.
Ieri
Massima -- | Minima -- °F
Precip. -- in
7:29 AM 6:11 PM
Luna crescente, 3% visible
Pressione 29.91 in
Visibilità 10.0 miglia
Nuvole Alcuni 5000 ft
Raffreddamento del vento 47 °F
Punto di rugiada 45 °F
Umidità 92%
Piovosità 0.00 in
Spessore del manto nevoso Non disponibile.
Raggi UV 2 fuori da 12
Polline 1.20 fuori da 12
Qualità dell'aria Non disponibile.
Flu Activity Sporadic
METAR KSEG 251353Z AUTO 00000KT 10SM FEW050 09/06 A2991 RMK AO2 SLP128 T00940061

More Conditions Fewer Conditions

Pressione 29.91 in
Visibilità 10.0 miglia
Nuvole Alcuni 5000 ft
Raffreddamento del vento 47 °F
Punto di rugiada 45 °F
Umidità 92%
Piovosità 0.00 in
Spessore del manto nevoso Non disponibile.
Raggi UV 2 fuori da 12
Polline 1.20 fuori da 12
Qualità dell'aria Non disponibile.
Flu Activity Sporadic
METAR KSEG 251353Z AUTO 00000KT 10SM FEW050 09/06 A2991 RMK AO2 SLP128 T00940061

More Conditions Fewer Conditions

10-Day Weather Forecast

Almanac

Astronomia

Oct. 25, 2014 Alba Tramonto
Ora attuale 07:29 EDT 18:11 EDT
Crepuscolo civile 07:00 EDT 18:39 EDT
Crepuscolo nautico 06:28 EDT 19:11 EDT
Crepuscolo astronomico 05:56 EDT 19:43 EDT
Luna 09:06 EDT 19:32 EDT
Estensione della luce visibile 11h 38m
Lunghezza del giorno
10h 42m
Tomorrow will be 2m 30s shorter.
Luna crescente, 3% of the Moon is Illuminated
Oggi
Luna crescente
Ott 30
Primo quarto
Nov 6
Luna piena
Nov 14
Ultimo quarto
Nov 22
Nuovo

Gli estremi di oggi

State Highs State Lows

Community

WunderPhotos

Upload Photos

1,764,852 foto caricate!

Nearby

Profondità neve

Stazione Profondità Altitudine
Non sono state evidenziate nuove nevicate

Attività sismica

Città  Distanza Mag. Data & Ora
Non sono state riportate attività sismiche nelle vicinanze.
Minimo Magnitudo Mostrato è 2.5.

Temperature delle acque costiere

Località Temperatura
Nessun dato dalle stazioni

Stazioni meteo nelle vicinanze